sensor_id;sensor_type;location;lat;lon;timestamp;P1;durP1;ratioP1;P2;durP2;ratioP2
25351;SDS011;13304;48.464;8.712;2023-05-10T00:01:25;2.80;;;0.43;;
25351;SDS011;13304;48.464;8.712;2023-05-10T00:03:51;0.30;;;0.30;;
25351;SDS011;13304;48.464;8.712;2023-05-10T00:06:16;1.23;;;0.40;;
25351;SDS011;13304;48.464;8.712;2023-05-10T00:08:43;1.38;;;0.32;;
25351;SDS011;13304;48.464;8.712;2023-05-10T00:11:09;0.40;;;0.30;;
25351;SDS011;13304;48.464;8.712;2023-05-10T00:13:35;1.17;;;0.30;;
25351;SDS011;13304;48.464;8.712;2023-05-10T00:16:00;2.50;;;0.35;;
25351;SDS011;13304;48.464;8.712;2023-05-10T00:18:26;0.38;;;0.30;;
25351;SDS011;13304;48.464;8.712;2023-05-10T00:20:52;1.88;;;0.30;;
25351;SDS011;13304;48.464;8.712;2023-05-10T00:23:17;2.92;;;0.35;;
25351;SDS011;13304;48.464;8.712;2023-05-10T00:25:43;0.30;;;0.25;;
25351;SDS011;13304;48.464;8.712;2023-05-10T00:28:09;0.63;;;0.30;;
25351;SDS011;13304;48.464;8.712;2023-05-10T00:30:35;0.20;;;0.20;;
25351;SDS011;13304;48.464;8.712;2023-05-10T00:33:00;0.30;;;0.30;;
25351;SDS011;13304;48.464;8.712;2023-05-10T00:35:26;0.77;;;0.52;;
25351;SDS011;13304;48.464;8.712;2023-05-10T00:37:52;0.50;;;0.50;;
25351;SDS011;13304;48.464;8.712;2023-05-10T00:40:18;0.40;;;0.20;;
25351;SDS011;13304;48.464;8.712;2023-05-10T00:42:44;0.30;;;0.30;;
25351;SDS011;13304;48.464;8.712;2023-05-10T00:45:09;0.45;;;0.30;;
25351;SDS011;13304;48.464;8.712;2023-05-10T00:47:35;0.93;;;0.40;;
25351;SDS011;13304;48.464;8.712;2023-05-10T00:50:01;0.40;;;0.30;;
25351;SDS011;13304;48.464;8.712;2023-05-10T00:52:28;0.93;;;0.38;;
25351;SDS011;13304;48.464;8.712;2023-05-10T00:54:54;2.70;;;0.40;;
25351;SDS011;13304;48.464;8.712;2023-05-10T00:57:20;0.80;;;0.45;;
25351;SDS011;13304;48.464;8.712;2023-05-10T00:59:48;0.45;;;0.30;;
25351;SDS011;13304;48.464;8.712;2023-05-10T01:02:13;0.30;;;0.30;;
25351;SDS011;13304;48.464;8.712;2023-05-10T01:04:41;2.28;;;0.50;;
25351;SDS011;13304;48.464;8.712;2023-05-10T01:07:08;0.30;;;0.30;;
25351;SDS011;13304;48.464;8.712;2023-05-10T01:09:34;1.35;;;0.35;;
25351;SDS011;13304;48.464;8.712;2023-05-10T01:12:00;2.13;;;0.43;;
25351;SDS011;13304;48.464;8.712;2023-05-10T01:14:26;1.52;;;0.40;;
25351;SDS011;13304;48.464;8.712;2023-05-10T01:16:53;0.30;;;0.30;;
25351;SDS011;13304;48.464;8.712;2023-05-10T01:19:21;0.82;;;0.50;;
25351;SDS011;13304;48.464;8.712;2023-05-10T01:35:44;0.98;;;0.60;;
25351;SDS011;13304;48.464;8.712;2023-05-10T01:43:47;2.42;;;0.55;;
25351;SDS011;13304;48.464;8.712;2023-05-10T01:46:17;2.50;;;0.52;;
25351;SDS011;13304;48.464;8.712;2023-05-10T01:48:54;0.88;;;0.50;;
25351;SDS011;13304;48.464;8.712;2023-05-10T01:51:23;0.85;;;0.57;;
25351;SDS011;13304;48.464;8.712;2023-05-10T01:53:58;0.60;;;0.60;;
25351;SDS011;13304;48.464;8.712;2023-05-10T01:56:26;0.63;;;0.60;;
25351;SDS011;13304;48.464;8.712;2023-05-10T01:58:55;0.63;;;0.50;;
25351;SDS011;13304;48.464;8.712;2023-05-10T02:01:23;2.67;;;0.68;;
25351;SDS011;13304;48.464;8.712;2023-05-10T02:03:51;1.80;;;0.70;;
25351;SDS011;13304;48.464;8.712;2023-05-10T02:06:18;1.15;;;0.50;;
25351;SDS011;13304;48.464;8.712;2023-05-10T02:08:47;2.78;;;0.70;;
25351;SDS011;13304;48.464;8.712;2023-05-10T02:11:15;1.45;;;0.70;;
25351;SDS011;13304;48.464;8.712;2023-05-10T02:13:43;1.88;;;0.50;;
25351;SDS011;13304;48.464;8.712;2023-05-10T02:16:12;1.58;;;0.80;;
25351;SDS011;13304;48.464;8.712;2023-05-10T02:18:39;1.20;;;0.50;;
25351;SDS011;13304;48.464;8.712;2023-05-10T02:21:06;1.00;;;0.60;;
25351;SDS011;13304;48.464;8.712;2023-05-10T02:23:34;1.35;;;0.82;;
25351;SDS011;13304;48.464;8.712;2023-05-10T02:26:01;1.20;;;0.60;;
25351;SDS011;13304;48.464;8.712;2023-05-10T02:28:28;5.50;;;0.75;;
25351;SDS011;13304;48.464;8.712;2023-05-10T02:30:56;4.07;;;0.70;;
25351;SDS011;13304;48.464;8.712;2023-05-10T02:33:22;1.48;;;0.68;;
25351;SDS011;13304;48.464;8.712;2023-05-10T02:35:50;4.18;;;0.77;;
25351;SDS011;13304;48.464;8.712;2023-05-10T02:38:17;3.50;;;0.65;;
25351;SDS011;13304;48.464;8.712;2023-05-10T02:40:46;2.47;;;0.70;;
25351;SDS011;13304;48.464;8.712;2023-05-10T02:43:14;1.02;;;0.60;;
25351;SDS011;13304;48.464;8.712;2023-05-10T02:45:42;2.20;;;0.82;;
25351;SDS011;13304;48.464;8.712;2023-05-10T02:48:12;2.58;;;0.80;;
25351;SDS011;13304;48.464;8.712;2023-05-10T02:50:37;0.75;;;0.60;;
25351;SDS011;13304;48.464;8.712;2023-05-10T02:53:11;2.65;;;0.80;;
25351;SDS011;13304;48.464;8.712;2023-05-10T02:55:46;3.08;;;0.63;;
25351;SDS011;13304;48.464;8.712;2023-05-10T02:58:17;2.95;;;1.10;;
25351;SDS011;13304;48.464;8.712;2023-05-10T03:00:44;0.90;;;0.68;;
25351;SDS011;13304;48.464;8.712;2023-05-10T03:03:11;1.52;;;0.90;;
25351;SDS011;13304;48.464;8.712;2023-05-10T03:05:37;2.55;;;0.98;;
25351;SDS011;13304;48.464;8.712;2023-05-10T03:08:02;2.75;;;0.80;;
25351;SDS011;13304;48.464;8.712;2023-05-10T03:10:29;3.42;;;0.80;;
25351;SDS011;13304;48.464;8.712;2023-05-10T03:13:07;7.80;;;0.82;;
25351;SDS011;13304;48.464;8.712;2023-05-10T03:15:58;2.15;;;0.77;;
25351;SDS011;13304;48.464;8.712;2023-05-10T03:18:48;3.80;;;1.20;;
25351;SDS011;13304;48.464;8.712;2023-05-10T03:23:51;1.77;;;0.90;;
25351;SDS011;13304;48.464;8.712;2023-05-10T03:26:24;1.25;;;0.68;;
25351;SDS011;13304;48.464;8.712;2023-05-10T03:28:52;1.08;;;0.60;;
25351;SDS011;13304;48.464;8.712;2023-05-10T03:31:19;1.35;;;0.60;;
25351;SDS011;13304;48.464;8.712;2023-05-10T03:33:46;2.00;;;0.90;;
25351;SDS011;13304;48.464;8.712;2023-05-10T03:36:21;1.63;;;0.70;;
25351;SDS011;13304;48.464;8.712;2023-05-10T03:38:46;3.00;;;0.70;;
25351;SDS011;13304;48.464;8.712;2023-05-10T03:41:12;0.73;;;0.60;;
25351;SDS011;13304;48.464;8.712;2023-05-10T03:43:39;4.22;;;1.00;;
25351;SDS011;13304;48.464;8.712;2023-05-10T03:46:05;1.90;;;1.08;;
25351;SDS011;13304;48.464;8.712;2023-05-10T03:48:31;2.03;;;0.90;;
25351;SDS011;13304;48.464;8.712;2023-05-10T03:50:57;1.45;;;0.85;;
25351;SDS011;13304;48.464;8.712;2023-05-10T03:53:23;4.55;;;0.98;;
25351;SDS011;13304;48.464;8.712;2023-05-10T03:55:50;1.58;;;0.90;;
25351;SDS011;13304;48.464;8.712;2023-05-10T03:58:15;0.93;;;0.68;;
25351;SDS011;13304;48.464;8.712;2023-05-10T04:00:41;1.60;;;0.93;;
25351;SDS011;13304;48.464;8.712;2023-05-10T04:03:10;2.03;;;0.80;;
25351;SDS011;13304;48.464;8.712;2023-05-10T04:05:36;1.27;;;0.80;;
25351;SDS011;13304;48.464;8.712;2023-05-10T04:08:02;4.97;;;0.98;;
25351;SDS011;13304;48.464;8.712;2023-05-10T04:10:28;2.67;;;0.85;;
25351;SDS011;13304;48.464;8.712;2023-05-10T04:12:54;1.98;;;0.93;;
25351;SDS011;13304;48.464;8.712;2023-05-10T04:15:19;3.58;;;0.77;;
25351;SDS011;13304;48.464;8.712;2023-05-10T04:17:45;1.23;;;0.90;;
25351;SDS011;13304;48.464;8.712;2023-05-10T04:20:11;1.15;;;0.70;;
25351;SDS011;13304;48.464;8.712;2023-05-10T04:22:37;1.13;;;0.70;;
25351;SDS011;13304;48.464;8.712;2023-05-10T04:25:03;2.70;;;1.10;;
25351;SDS011;13304;48.464;8.712;2023-05-10T04:27:29;1.20;;;0.90;;
25351;SDS011;13304;48.464;8.712;2023-05-10T04:29:56;1.42;;;0.93;;
25351;SDS011;13304;48.464;8.712;2023-05-10T04:32:22;4.10;;;1.10;;
25351;SDS011;13304;48.464;8.712;2023-05-10T04:34:47;3.67;;;1.10;;
25351;SDS011;13304;48.464;8.712;2023-05-10T04:37:13;1.20;;;0.90;;
25351;SDS011;13304;48.464;8.712;2023-05-10T04:39:39;4.10;;;1.20;;
25351;SDS011;13304;48.464;8.712;2023-05-10T04:42:05;8.18;;;1.45;;
25351;SDS011;13304;48.464;8.712;2023-05-10T04:44:34;2.75;;;2.40;;
25351;SDS011;13304;48.464;8.712;2023-05-10T04:47:00;5.32;;;2.50;;
25351;SDS011;13304;48.464;8.712;2023-05-10T04:49:27;3.20;;;1.15;;
25351;SDS011;13304;48.464;8.712;2023-05-10T04:51:53;3.55;;;0.90;;
25351;SDS011;13304;48.464;8.712;2023-05-10T04:54:19;3.75;;;1.20;;
25351;SDS011;13304;48.464;8.712;2023-05-10T04:56:44;2.33;;;0.90;;
25351;SDS011;13304;48.464;8.712;2023-05-10T04:59:10;3.35;;;1.00;;
25351;SDS011;13304;48.464;8.712;2023-05-10T05:01:36;1.30;;;0.95;;
25351;SDS011;13304;48.464;8.712;2023-05-10T05:04:02;3.35;;;1.55;;
25351;SDS011;13304;48.464;8.712;2023-05-10T05:06:28;4.53;;;1.13;;
25351;SDS011;13304;48.464;8.712;2023-05-10T05:08:53;3.45;;;0.90;;
25351;SDS011;13304;48.464;8.712;2023-05-10T05:11:19;2.83;;;1.00;;
25351;SDS011;13304;48.464;8.712;2023-05-10T05:13:46;2.05;;;1.30;;
25351;SDS011;13304;48.464;8.712;2023-05-10T05:16:11;3.70;;;1.40;;
25351;SDS011;13304;48.464;8.712;2023-05-10T05:18:37;0.95;;;0.80;;
25351;SDS011;13304;48.464;8.712;2023-05-10T05:21:13;2.35;;;1.20;;
25351;SDS011;13304;48.464;8.712;2023-05-10T05:23:42;1.98;;;0.75;;
25351;SDS011;13304;48.464;8.712;2023-05-10T05:26:08;2.03;;;1.13;;
25351;SDS011;13304;48.464;8.712;2023-05-10T05:28:34;1.73;;;1.00;;
25351;SDS011;13304;48.464;8.712;2023-05-10T05:31:02;1.90;;;0.80;;
25351;SDS011;13304;48.464;8.712;2023-05-10T05:33:29;1.38;;;0.80;;
25351;SDS011;13304;48.464;8.712;2023-05-10T05:35:54;3.00;;;0.90;;
25351;SDS011;13304;48.464;8.712;2023-05-10T05:38:20;0.90;;;0.70;;
25351;SDS011;13304;48.464;8.712;2023-05-10T05:40:46;2.00;;;0.88;;
25351;SDS011;13304;48.464;8.712;2023-05-10T05:43:12;1.20;;;0.90;;
25351;SDS011;13304;48.464;8.712;2023-05-10T05:45:38;11.98;;;1.52;;
25351;SDS011;13304;48.464;8.712;2023-05-10T05:48:04;2.50;;;1.30;;
25351;SDS011;13304;48.464;8.712;2023-05-10T05:50:30;2.90;;;0.90;;
25351;SDS011;13304;48.464;8.712;2023-05-10T05:52:56;2.55;;;1.10;;
25351;SDS011;13304;48.464;8.712;2023-05-10T05:55:22;1.10;;;0.70;;
25351;SDS011;13304;48.464;8.712;2023-05-10T05:57:49;4.40;;;1.10;;
25351;SDS011;13304;48.464;8.712;2023-05-10T06:00:15;1.42;;;0.90;;
25351;SDS011;13304;48.464;8.712;2023-05-10T06:02:41;4.75;;;1.00;;
25351;SDS011;13304;48.464;8.712;2023-05-10T06:05:06;3.33;;;0.82;;
25351;SDS011;13304;48.464;8.712;2023-05-10T06:07:33;1.10;;;0.90;;
25351;SDS011;13304;48.464;8.712;2023-05-10T06:09:59;1.67;;;1.00;;
25351;SDS011;13304;48.464;8.712;2023-05-10T06:12:24;7.63;;;1.08;;
25351;SDS011;13304;48.464;8.712;2023-05-10T06:14:50;1.77;;;1.00;;
25351;SDS011;13304;48.464;8.712;2023-05-10T06:17:16;2.85;;;1.00;;
25351;SDS011;13304;48.464;8.712;2023-05-10T06:19:41;3.35;;;1.00;;
25351;SDS011;13304;48.464;8.712;2023-05-10T06:22:07;2.15;;;1.02;;
25351;SDS011;13304;48.464;8.712;2023-05-10T06:24:33;1.58;;;0.93;;
25351;SDS011;13304;48.464;8.712;2023-05-10T06:26:58;1.73;;;0.90;;
25351;SDS011;13304;48.464;8.712;2023-05-10T06:29:25;2.63;;;0.98;;
25351;SDS011;13304;48.464;8.712;2023-05-10T06:31:51;1.63;;;0.80;;
25351;SDS011;13304;48.464;8.712;2023-05-10T06:34:17;6.63;;;0.90;;
25351;SDS011;13304;48.464;8.712;2023-05-10T06:36:42;2.75;;;0.90;;
25351;SDS011;13304;48.464;8.712;2023-05-10T06:39:11;1.77;;;0.93;;
25351;SDS011;13304;48.464;8.712;2023-05-10T06:41:37;3.85;;;1.13;;
25351;SDS011;13304;48.464;8.712;2023-05-10T06:44:03;1.98;;;1.10;;
25351;SDS011;13304;48.464;8.712;2023-05-10T06:46:29;1.73;;;0.90;;
25351;SDS011;13304;48.464;8.712;2023-05-10T06:48:55;1.75;;;1.05;;
25351;SDS011;13304;48.464;8.712;2023-05-10T06:51:23;1.48;;;0.82;;
25351;SDS011;13304;48.464;8.712;2023-05-10T06:53:49;3.13;;;0.82;;
25351;SDS011;13304;48.464;8.712;2023-05-10T06:56:15;2.47;;;0.85;;
25351;SDS011;13304;48.464;8.712;2023-05-10T06:58:40;3.30;;;1.33;;
25351;SDS011;13304;48.464;8.712;2023-05-10T07:01:06;3.72;;;1.05;;
25351;SDS011;13304;48.464;8.712;2023-05-10T07:03:32;1.90;;;1.08;;
25351;SDS011;13304;48.464;8.712;2023-05-10T07:06:01;2.70;;;2.50;;
25351;SDS011;13304;48.464;8.712;2023-05-10T07:08:29;2.15;;;1.05;;
25351;SDS011;13304;48.464;8.712;2023-05-10T07:11:02;1.92;;;1.00;;
25351;SDS011;13304;48.464;8.712;2023-05-10T07:13:30;6.65;;;1.20;;
25351;SDS011;13304;48.464;8.712;2023-05-10T07:15:56;1.15;;;0.90;;
25351;SDS011;13304;48.464;8.712;2023-05-10T07:18:23;1.27;;;1.00;;
25351;SDS011;13304;48.464;8.712;2023-05-10T07:20:49;1.70;;;1.10;;
25351;SDS011;13304;48.464;8.712;2023-05-10T07:23:15;1.67;;;0.90;;
25351;SDS011;13304;48.464;8.712;2023-05-10T07:25:44;2.90;;;1.05;;
25351;SDS011;13304;48.464;8.712;2023-05-10T07:28:11;1.10;;;0.70;;
25351;SDS011;13304;48.464;8.712;2023-05-10T07:30:37;1.90;;;1.20;;
25351;SDS011;13304;48.464;8.712;2023-05-10T07:33:03;2.35;;;0.75;;
25351;SDS011;13304;48.464;8.712;2023-05-10T07:35:29;1.35;;;0.70;;
25351;SDS011;13304;48.464;8.712;2023-05-10T07:37:54;0.73;;;0.57;;
25351;SDS011;13304;48.464;8.712;2023-05-10T07:40:20;2.67;;;0.90;;
25351;SDS011;13304;48.464;8.712;2023-05-10T07:42:46;1.50;;;0.95;;
25351;SDS011;13304;48.464;8.712;2023-05-10T07:45:11;1.17;;;0.75;;
25351;SDS011;13304;48.464;8.712;2023-05-10T07:47:37;0.70;;;0.70;;
25351;SDS011;13304;48.464;8.712;2023-05-10T07:50:03;0.43;;;0.40;;
25351;SDS011;13304;48.464;8.712;2023-05-10T07:52:29;1.83;;;0.70;;
25351;SDS011;13304;48.464;8.712;2023-05-10T07:54:54;2.42;;;0.90;;
25351;SDS011;13304;48.464;8.712;2023-05-10T07:57:21;2.78;;;0.90;;
25351;SDS011;13304;48.464;8.712;2023-05-10T07:59:47;0.95;;;0.45;;
25351;SDS011;13304;48.464;8.712;2023-05-10T08:02:13;2.28;;;0.60;;
25351;SDS011;13304;48.464;8.712;2023-05-10T08:04:39;1.48;;;0.70;;
25351;SDS011;13304;48.464;8.712;2023-05-10T08:07:04;0.50;;;0.50;;
25351;SDS011;13304;48.464;8.712;2023-05-10T08:09:30;0.95;;;0.50;;
25351;SDS011;13304;48.464;8.712;2023-05-10T08:11:56;2.55;;;0.50;;
25351;SDS011;13304;48.464;8.712;2023-05-10T08:14:21;1.42;;;0.50;;
25351;SDS011;13304;48.464;8.712;2023-05-10T08:16:47;1.20;;;0.57;;
25351;SDS011;13304;48.464;8.712;2023-05-10T08:19:13;1.35;;;0.50;;
25351;SDS011;13304;48.464;8.712;2023-05-10T08:21:39;0.95;;;0.52;;
25351;SDS011;13304;48.464;8.712;2023-05-10T08:24:07;1.02;;;0.50;;
25351;SDS011;13304;48.464;8.712;2023-05-10T08:26:33;0.47;;;0.47;;
25351;SDS011;13304;48.464;8.712;2023-05-10T08:28:58;0.75;;;0.40;;
25351;SDS011;13304;48.464;8.712;2023-05-10T08:31:24;0.63;;;0.50;;
25351;SDS011;13304;48.464;8.712;2023-05-10T08:33:50;1.15;;;0.50;;
25351;SDS011;13304;48.464;8.712;2023-05-10T08:36:17;0.40;;;0.40;;
25351;SDS011;13304;48.464;8.712;2023-05-10T08:38:49;1.38;;;0.43;;
25351;SDS011;13304;48.464;8.712;2023-05-10T08:41:16;2.83;;;0.52;;
25351;SDS011;13304;48.464;8.712;2023-05-10T08:43:45;1.02;;;0.50;;
25351;SDS011;13304;48.464;8.712;2023-05-10T08:46:12;1.65;;;0.50;;
25351;SDS011;13304;48.464;8.712;2023-05-10T08:48:44;2.83;;;0.70;;
25351;SDS011;13304;48.464;8.712;2023-05-10T08:51:15;2.00;;;0.40;;
25351;SDS011;13304;48.464;8.712;2023-05-10T08:53:43;0.70;;;0.40;;
25351;SDS011;13304;48.464;8.712;2023-05-10T08:56:10;1.55;;;0.55;;
25351;SDS011;13304;48.464;8.712;2023-05-10T08:58:37;2.67;;;0.50;;
25351;SDS011;13304;48.464;8.712;2023-05-10T09:01:03;0.70;;;0.40;;
25351;SDS011;13304;48.464;8.712;2023-05-10T09:03:31;0.73;;;0.50;;
25351;SDS011;13304;48.464;8.712;2023-05-10T09:05:57;0.70;;;0.50;;
25351;SDS011;13304;48.464;8.712;2023-05-10T09:08:24;0.63;;;0.40;;
25351;SDS011;13304;48.464;8.712;2023-05-10T09:10:50;3.67;;;0.63;;
25351;SDS011;13304;48.464;8.712;2023-05-10T09:13:17;0.68;;;0.55;;
25351;SDS011;13304;48.464;8.712;2023-05-10T09:15:44;1.20;;;0.60;;
25351;SDS011;13304;48.464;8.712;2023-05-10T09:18:10;1.15;;;0.40;;
25351;SDS011;13304;48.464;8.712;2023-05-10T09:20:36;1.15;;;0.50;;
25351;SDS011;13304;48.464;8.712;2023-05-10T09:23:02;2.63;;;0.50;;
25351;SDS011;13304;48.464;8.712;2023-05-10T09:25:28;1.67;;;0.70;;
25351;SDS011;13304;48.464;8.712;2023-05-10T09:27:54;0.70;;;0.43;;
25351;SDS011;13304;48.464;8.712;2023-05-10T09:30:24;3.00;;;0.70;;
25351;SDS011;13304;48.464;8.712;2023-05-10T09:32:51;0.55;;;0.40;;
25351;SDS011;13304;48.464;8.712;2023-05-10T09:35:18;0.98;;;0.65;;
25351;SDS011;13304;48.464;8.712;2023-05-10T09:37:47;0.60;;;0.50;;
25351;SDS011;13304;48.464;8.712;2023-05-10T09:40:17;1.98;;;0.65;;
25351;SDS011;13304;48.464;8.712;2023-05-10T09:45:24;0.93;;;0.50;;
25351;SDS011;13304;48.464;8.712;2023-05-10T09:47:51;1.20;;;0.60;;
25351;SDS011;13304;48.464;8.712;2023-05-10T09:50:17;2.25;;;0.75;;
25351;SDS011;13304;48.464;8.712;2023-05-10T09:55:22;0.82;;;0.55;;
25351;SDS011;13304;48.464;8.712;2023-05-10T09:57:50;1.95;;;0.63;;
25351;SDS011;13304;48.464;8.712;2023-05-10T10:00:24;1.25;;;0.80;;
25351;SDS011;13304;48.464;8.712;2023-05-10T10:02:54;1.95;;;0.68;;
25351;SDS011;13304;48.464;8.712;2023-05-10T10:05:27;1.45;;;0.63;;
25351;SDS011;13304;48.464;8.712;2023-05-10T10:08:02;0.50;;;0.50;;
25351;SDS011;13304;48.464;8.712;2023-05-10T10:10:29;3.55;;;0.80;;
25351;SDS011;13304;48.464;8.712;2023-05-10T10:12:56;1.98;;;0.70;;
25351;SDS011;13304;48.464;8.712;2023-05-10T10:15:23;2.83;;;0.65;;
25351;SDS011;13304;48.464;8.712;2023-05-10T10:17:50;2.08;;;0.63;;
25351;SDS011;13304;48.464;8.712;2023-05-10T10:20:17;3.30;;;0.70;;
25351;SDS011;13304;48.464;8.712;2023-05-10T10:22:44;4.22;;;1.08;;
25351;SDS011;13304;48.464;8.712;2023-05-10T10:25:11;2.10;;;0.60;;
25351;SDS011;13304;48.464;8.712;2023-05-10T10:27:49;1.52;;;0.60;;
25351;SDS011;13304;48.464;8.712;2023-05-10T10:30:42;2.38;;;0.70;;
25351;SDS011;13304;48.464;8.712;2023-05-10T10:35:50;1.67;;;0.60;;
25351;SDS011;13304;48.464;8.712;2023-05-10T10:38:18;3.85;;;0.90;;
25351;SDS011;13304;48.464;8.712;2023-05-10T10:40:44;2.35;;;0.98;;
25351;SDS011;13304;48.464;8.712;2023-05-10T10:46:33;1.13;;;0.70;;
25351;SDS011;13304;48.464;8.712;2023-05-10T10:48:47;3.30;;;0.82;;
25351;SDS011;13304;48.464;8.712;2023-05-10T10:51:14;2.10;;;0.70;;
25351;SDS011;13304;48.464;8.712;2023-05-10T10:53:40;3.30;;;0.75;;
25351;SDS011;13304;48.464;8.712;2023-05-10T10:56:10;2.47;;;0.75;;
25351;SDS011;13304;48.464;8.712;2023-05-10T10:58:38;4.82;;;1.00;;
25351;SDS011;13304;48.464;8.712;2023-05-10T11:01:11;1.52;;;0.80;;
25351;SDS011;13304;48.464;8.712;2023-05-10T11:03:41;1.92;;;0.80;;
25351;SDS011;13304;48.464;8.712;2023-05-10T11:06:40;3.33;;;0.82;;
25351;SDS011;13304;48.464;8.712;2023-05-10T11:09:08;2.33;;;0.77;;
25351;SDS011;13304;48.464;8.712;2023-05-10T11:11:36;2.40;;;0.75;;
25351;SDS011;13304;48.464;8.712;2023-05-10T11:14:14;4.22;;;0.80;;
25351;SDS011;13304;48.464;8.712;2023-05-10T11:16:45;1.38;;;0.73;;
25351;SDS011;13304;48.464;8.712;2023-05-10T11:19:12;3.15;;;0.73;;
25351;SDS011;13304;48.464;8.712;2023-05-10T11:21:49;1.63;;;0.65;;
25351;SDS011;13304;48.464;8.712;2023-05-10T11:24:17;1.98;;;0.57;;
25351;SDS011;13304;48.464;8.712;2023-05-10T11:26:44;3.22;;;0.88;;
25351;SDS011;13304;48.464;8.712;2023-05-10T11:29:12;1.63;;;0.68;;
25351;SDS011;13304;48.464;8.712;2023-05-10T11:31:42;2.08;;;0.98;;
25351;SDS011;13304;48.464;8.712;2023-05-10T11:34:22;6.75;;;1.23;;
25351;SDS011;13304;48.464;8.712;2023-05-10T11:36:52;2.70;;;0.70;;
25351;SDS011;13304;48.464;8.712;2023-05-10T11:39:19;4.20;;;0.70;;
25351;SDS011;13304;48.464;8.712;2023-05-10T11:41:49;1.88;;;0.60;;
25351;SDS011;13304;48.464;8.712;2023-05-10T11:44:15;5.60;;;1.08;;
25351;SDS011;13304;48.464;8.712;2023-05-10T11:46:41;1.70;;;0.60;;
25351;SDS011;13304;48.464;8.712;2023-05-10T11:49:07;4.90;;;1.00;;
25351;SDS011;13304;48.464;8.712;2023-05-10T11:51:34;1.08;;;0.60;;
25351;SDS011;13304;48.464;8.712;2023-05-10T11:54:10;2.08;;;0.90;;
25351;SDS011;13304;48.464;8.712;2023-05-10T11:56:37;1.25;;;0.77;;
25351;SDS011;13304;48.464;8.712;2023-05-10T11:59:04;1.38;;;0.80;;
25351;SDS011;13304;48.464;8.712;2023-05-10T12:04:22;3.50;;;0.85;;
25351;SDS011;13304;48.464;8.712;2023-05-10T12:06:48;2.00;;;0.80;;
25351;SDS011;13304;48.464;8.712;2023-05-10T12:09:13;3.20;;;1.08;;
25351;SDS011;13304;48.464;8.712;2023-05-10T12:11:40;2.60;;;0.95;;
25351;SDS011;13304;48.464;8.712;2023-05-10T12:14:06;2.17;;;0.98;;
25351;SDS011;13304;48.464;8.712;2023-05-10T12:19:51;3.47;;;1.00;;
25351;SDS011;13304;48.464;8.712;2023-05-10T12:22:20;2.88;;;1.00;;
25351;SDS011;13304;48.464;8.712;2023-05-10T12:24:46;3.22;;;0.85;;
25351;SDS011;13304;48.464;8.712;2023-05-10T12:27:11;4.00;;;0.82;;
25351;SDS011;13304;48.464;8.712;2023-05-10T12:29:41;2.40;;;0.77;;
25351;SDS011;13304;48.464;8.712;2023-05-10T12:32:09;4.32;;;1.10;;
25351;SDS011;13304;48.464;8.712;2023-05-10T12:34:35;2.55;;;0.90;;
25351;SDS011;13304;48.464;8.712;2023-05-10T12:37:03;2.63;;;0.80;;
25351;SDS011;13304;48.464;8.712;2023-05-10T12:39:45;2.53;;;1.00;;
25351;SDS011;13304;48.464;8.712;2023-05-10T12:42:11;1.98;;;0.90;;
25351;SDS011;13304;48.464;8.712;2023-05-10T12:44:37;3.35;;;1.10;;
25351;SDS011;13304;48.464;8.712;2023-05-10T12:47:03;2.95;;;0.82;;
25351;SDS011;13304;48.464;8.712;2023-05-10T12:49:29;5.22;;;1.00;;
25351;SDS011;13304;48.464;8.712;2023-05-10T12:51:54;2.35;;;1.00;;
25351;SDS011;13304;48.464;8.712;2023-05-10T12:54:20;2.40;;;1.00;;
25351;SDS011;13304;48.464;8.712;2023-05-10T12:56:46;3.22;;;0.90;;
25351;SDS011;13304;48.464;8.712;2023-05-10T12:59:12;2.70;;;1.08;;
25351;SDS011;13304;48.464;8.712;2023-05-10T13:01:37;5.65;;;1.27;;
25351;SDS011;13304;48.464;8.712;2023-05-10T13:04:03;7.65;;;0.82;;
25351;SDS011;13304;48.464;8.712;2023-05-10T13:06:29;3.42;;;1.05;;
25351;SDS011;13304;48.464;8.712;2023-05-10T13:08:55;2.35;;;0.80;;
25351;SDS011;13304;48.464;8.712;2023-05-10T13:11:22;3.13;;;0.90;;
25351;SDS011;13304;48.464;8.712;2023-05-10T13:13:48;4.25;;;0.90;;
25351;SDS011;13304;48.464;8.712;2023-05-10T13:16:14;2.25;;;1.02;;
25351;SDS011;13304;48.464;8.712;2023-05-10T13:18:39;3.28;;;0.93;;
25351;SDS011;13304;48.464;8.712;2023-05-10T13:21:05;5.32;;;1.02;;
25351;SDS011;13304;48.464;8.712;2023-05-10T13:23:32;3.55;;;1.00;;
25351;SDS011;13304;48.464;8.712;2023-05-10T13:25:58;2.15;;;0.77;;
25351;SDS011;13304;48.464;8.712;2023-05-10T13:28:24;3.55;;;1.30;;
25351;SDS011;13304;48.464;8.712;2023-05-10T13:30:51;5.18;;;1.20;;
25351;SDS011;13304;48.464;8.712;2023-05-10T13:33:17;3.28;;;1.10;;
25351;SDS011;13304;48.464;8.712;2023-05-10T13:35:43;4.88;;;1.02;;
25351;SDS011;13304;48.464;8.712;2023-05-10T13:38:09;5.88;;;1.05;;
25351;SDS011;13304;48.464;8.712;2023-05-10T13:40:35;2.80;;;0.68;;
25351;SDS011;13304;48.464;8.712;2023-05-10T13:43:01;2.92;;;0.73;;
25351;SDS011;13304;48.464;8.712;2023-05-10T13:45:27;2.55;;;0.90;;
25351;SDS011;13304;48.464;8.712;2023-05-10T13:47:52;3.28;;;1.00;;
25351;SDS011;13304;48.464;8.712;2023-05-10T13:50:18;1.85;;;0.80;;
25351;SDS011;13304;48.464;8.712;2023-05-10T13:52:44;1.48;;;0.90;;
25351;SDS011;13304;48.464;8.712;2023-05-10T13:55:10;6.80;;;0.75;;
25351;SDS011;13304;48.464;8.712;2023-05-10T13:57:38;3.42;;;1.10;;
25351;SDS011;13304;48.464;8.712;2023-05-10T14:00:04;2.33;;;0.60;;
25351;SDS011;13304;48.464;8.712;2023-05-10T14:02:30;1.80;;;0.70;;
25351;SDS011;13304;48.464;8.712;2023-05-10T14:04:56;2.97;;;0.70;;
25351;SDS011;13304;48.464;8.712;2023-05-10T14:07:22;1.88;;;0.80;;
25351;SDS011;13304;48.464;8.712;2023-05-10T14:09:47;2.05;;;0.80;;
25351;SDS011;13304;48.464;8.712;2023-05-10T14:12:13;1.95;;;0.57;;
25351;SDS011;13304;48.464;8.712;2023-05-10T14:14:39;1.50;;;0.80;;
25351;SDS011;13304;48.464;8.712;2023-05-10T14:17:05;1.95;;;0.70;;
25351;SDS011;13304;48.464;8.712;2023-05-10T14:19:31;2.85;;;0.55;;
25351;SDS011;13304;48.464;8.712;2023-05-10T14:21:58;1.23;;;0.63;;
25351;SDS011;13304;48.464;8.712;2023-05-10T14:24:24;4.80;;;0.90;;
25351;SDS011;13304;48.464;8.712;2023-05-10T14:26:50;2.00;;;0.70;;
25351;SDS011;13304;48.464;8.712;2023-05-10T14:29:18;3.50;;;0.93;;
25351;SDS011;13304;48.464;8.712;2023-05-10T14:31:45;2.40;;;0.70;;
25351;SDS011;13304;48.464;8.712;2023-05-10T14:34:11;1.17;;;0.60;;
25351;SDS011;13304;48.464;8.712;2023-05-10T14:36:36;1.75;;;0.77;;
25351;SDS011;13304;48.464;8.712;2023-05-10T14:39:02;1.13;;;0.60;;
25351;SDS011;13304;48.464;8.712;2023-05-10T14:41:28;2.55;;;0.70;;
25351;SDS011;13304;48.464;8.712;2023-05-10T14:43:55;1.73;;;0.80;;
25351;SDS011;13304;48.464;8.712;2023-05-10T14:46:20;2.28;;;0.60;;
25351;SDS011;13304;48.464;8.712;2023-05-10T14:48:46;2.67;;;0.70;;
25351;SDS011;13304;48.464;8.712;2023-05-10T14:51:12;2.13;;;0.70;;
25351;SDS011;13304;48.464;8.712;2023-05-10T14:53:38;1.80;;;0.90;;
25351;SDS011;13304;48.464;8.712;2023-05-10T14:56:04;2.17;;;0.90;;
25351;SDS011;13304;48.464;8.712;2023-05-10T14:58:30;2.58;;;0.70;;
25351;SDS011;13304;48.464;8.712;2023-05-10T15:00:55;4.25;;;0.88;;
25351;SDS011;13304;48.464;8.712;2023-05-10T15:03:22;2.45;;;0.85;;
25351;SDS011;13304;48.464;8.712;2023-05-10T15:05:48;3.25;;;0.80;;
25351;SDS011;13304;48.464;8.712;2023-05-10T15:08:13;2.35;;;0.98;;
25351;SDS011;13304;48.464;8.712;2023-05-10T15:10:39;3.15;;;1.02;;
25351;SDS011;13304;48.464;8.712;2023-05-10T15:13:05;2.13;;;1.00;;
25351;SDS011;13304;48.464;8.712;2023-05-10T15:15:31;5.65;;;0.88;;
25351;SDS011;13304;48.464;8.712;2023-05-10T15:17:56;2.72;;;1.08;;
25351;SDS011;13304;48.464;8.712;2023-05-10T15:20:22;3.38;;;0.75;;
25351;SDS011;13304;48.464;8.712;2023-05-10T15:22:48;1.27;;;0.77;;
25351;SDS011;13304;48.464;8.712;2023-05-10T15:25:13;3.90;;;1.20;;
25351;SDS011;13304;48.464;8.712;2023-05-10T15:27:40;4.65;;;1.00;;